Time;durP1;ratioP1;P1;durP2;ratioP2;P2;SDS_P1;SDS_P2;PMS_P1;PMS_P2;Temp;Humidity;BMP_temperature;BMP_pressure;BME280_temperature;BME280_humidity;BME280_pressure;Samples;Min_cycle;Max_cycle;Signal;HPM_P1;HPM_P2
2023/09/29 00:00:35;;;;;;;3.45;1.70;;;;;;;;;;5069944;28;20044;-78
2023/09/29 00:03:03;;;;;;;2.50;1.60;;;;;;;;;;5070256;28;20048;-78
2023/09/29 00:05:31;;;;;;;3.50;1.70;;;;;;;;;;5069806;28;20059;-76
2023/09/29 00:07:58;;;;;;;2.97;1.60;;;;;;;;;;5069464;28;20048;-78
2023/09/29 00:10:25;;;;;;;3.03;1.50;;;;;;;;;;5069930;28;20049;-79
2023/09/29 00:12:52;;;;;;;2.58;1.55;;;;;;;;;;5070041;28;20041;-78
2023/09/29 00:15:19;;;;;;;4.20;1.80;;;;;;;;;;5069441;28;20052;-78
2023/09/29 00:17:46;;;;;;;2.65;1.60;;;;;;;;;;5070188;28;20049;-78
2023/09/29 00:20:23;;;;;;;3.33;1.70;;;;;;;;;;5069615;28;20087;-76
2023/09/29 00:22:52;;;;;;;4.47;1.63;;;;;;;;;;5070170;28;20044;-78
2023/09/29 00:25:19;;;;;;;3.00;1.58;;;;;;;;;;5069310;28;20071;-78
2023/09/29 00:27:46;;;;;;;4.60;1.50;;;;;;;;;;5069878;28;20447;-78
2023/09/29 00:30:14;;;;;;;4.50;1.90;;;;;;;;;;5069596;28;20049;-78
2023/09/29 00:32:48;;;;;;;4.82;2.00;;;;;;;;;;5069419;28;20499;-79
2023/09/29 00:35:27;;;;;;;4.28;1.77;;;;;;;;;;5069221;28;20071;-78
2023/09/29 00:37:59;;;;;;;3.75;1.67;;;;;;;;;;5069266;28;20087;-78
2023/09/29 00:40:27;;;;;;;4.30;1.90;;;;;;;;;;5069360;28;20397;-78
2023/09/29 00:42:54;;;;;;;4.68;2.00;;;;;;;;;;5069561;28;20058;-78
2023/09/29 00:45:26;;;;;;;3.45;1.80;;;;;;;;;;5069014;28;20390;-78
2023/09/29 00:48:04;;;;;;;3.15;1.73;;;;;;;;;;5069335;28;20432;-79
2023/09/29 00:50:31;;;;;;;7.30;2.03;;;;;;;;;;5068953;28;20054;-78
2023/09/29 00:52:59;;;;;;;3.70;1.75;;;;;;;;;;5068713;28;20102;-78
2023/09/29 00:55:29;;;;;;;5.30;1.80;;;;;;;;;;5069076;28;20045;-79
2023/09/29 00:57:58;;;;;;;2.80;1.55;;;;;;;;;;5069316;28;20455;-79
2023/09/29 01:02:57;;;;;;;3.00;1.80;;;;;;;;;;5069288;28;20045;-78
2023/09/29 01:05:25;;;;;;;3.70;2.00;;;;;;;;;;5068844;28;20051;-78
2023/09/29 01:07:52;;;;;;;3.47;1.90;;;;;;;;;;5068419;28;20137;-79
2023/09/29 01:10:19;;;;;;;3.35;1.83;;;;;;;;;;5068719;28;20566;-78
2023/09/29 01:12:45;;;;;;;4.15;1.90;;;;;;;;;;5068852;28;20725;-79
2023/09/29 01:15:14;;;;;;;4.45;1.95;;;;;;;;;;5068255;28;20044;-79
2023/09/29 01:17:42;;;;;;;2.97;1.83;;;;;;;;;;5068763;28;20052;-78
2023/09/29 01:20:16;;;;;;;3.28;1.85;;;;;;;;;;5068988;28;20056;-79
2023/09/29 01:22:45;;;;;;;3.28;1.85;;;;;;;;;;5068818;28;20404;-79
2023/09/29 01:25:16;;;;;;;4.05;1.92;;;;;;;;;;5068452;28;20055;-78
2023/09/29 01:27:43;;;;;;;;;;;;;;;;;;5069250;28;20139;-79
2023/09/29 01:30:13;;;;;;;5.65;1.85;;;;;;;;;;5068979;28;19927;-79
2023/09/29 01:32:41;;;;;;;;;;;;;;;;;;5069086;28;20416;-78
2023/09/29 01:35:11;;;;;;;3.60;1.65;;;;;;;;;;5068660;28;19924;-79
2023/09/29 01:37:38;;;;;;;5.07;2.00;;;;;;;;;;5068619;28;20055;-79
2023/09/29 01:40:07;;;;;;;3.63;1.88;;;;;;;;;;5068709;28;20050;-78
2023/09/29 01:42:35;;;;;;;3.53;1.95;;;;;;;;;;5068022;28;20084;-78
2023/09/29 01:45:05;;;;;;;3.53;1.90;;;;;;;;;;5068627;28;20044;-77
2023/09/29 01:47:32;;;;;;;;;;;;;;;;;;5068839;28;20098;-79
2023/09/29 01:50:00;;;;;;;4.85;1.98;;;;;;;;;;5068634;28;19920;-78
2023/09/29 01:52:26;;;;;;;5.45;1.90;;;;;;;;;;5068541;28;20055;-79
2023/09/29 01:54:55;;;;;;;3.42;2.05;;;;;;;;;;5068166;28;20059;-79
2023/09/29 01:57:22;;;;;;;3.50;2.20;;;;;;;;;;5068467;28;20087;-79
2023/09/29 01:59:49;;;;;;;3.45;1.85;;;;;;;;;;5068339;28;20048;-79
2023/09/29 02:02:16;;;;;;;4.90;2.10;;;;;;;;;;5050149;28;20056;-78
2023/09/29 02:04:43;;;;;;;4.45;1.80;;;;;;;;;;5068785;28;20048;-78
2023/09/29 02:07:09;;;;;;;3.10;1.88;;;;;;;;;;5067788;28;20055;-78
2023/09/29 02:09:36;;;;;;;3.17;1.92;;;;;;;;;;5067943;28;20401;-79
2023/09/29 02:12:03;;;;;;;3.63;1.77;;;;;;;;;;5068210;28;20040;-79
2023/09/29 02:14:30;;;;;;;3.58;2.13;;;;;;;;;;5068172;28;20475;-78
2023/09/29 02:16:57;;;;;;;3.92;1.80;;;;;;;;;;5067928;28;20049;-79
2023/09/29 02:19:24;;;;;;;4.13;1.90;;;;;;;;;;5068437;28;20049;-79
2023/09/29 02:21:50;;;;;;;3.78;2.00;;;;;;;;;;5067903;28;20089;-79
2023/09/29 02:24:17;;;;;;;3.67;2.03;;;;;;;;;;5067753;28;20425;-77
2023/09/29 02:26:44;;;;;;;2.85;1.85;;;;;;;;;;5070650;28;20093;-79
2023/09/29 02:29:11;;;;;;;4.65;1.80;;;;;;;;;;5072175;28;20055;-79
2023/09/29 02:31:37;;;;;;;4.93;1.85;;;;;;;;;;5071949;28;20041;-78
2023/09/29 02:34:04;;;;;;;2.88;1.90;;;;;;;;;;5071992;28;20059;-79
2023/09/29 02:36:31;;;;;;;6.32;2.30;;;;;;;;;;5071549;28;20129;-78
2023/09/29 02:38:58;;;;;;;3.55;2.15;;;;;;;;;;5071353;28;20420;-77
2023/09/29 02:41:25;;;;;;;3.95;2.30;;;;;;;;;;5071665;28;20044;-79
2023/09/29 02:43:52;;;;;;;4.13;2.20;;;;;;;;;;5071746;28;20462;-77
2023/09/29 02:46:20;;;;;;;4.25;1.88;;;;;;;;;;5071563;28;20060;-77
2023/09/29 02:48:48;;;;;;;4.82;1.95;;;;;;;;;;5071417;28;20518;-78
2023/09/29 02:51:19;;;;;;;4.20;2.30;;;;;;;;;;5071572;28;20127;-78
2023/09/29 02:53:49;;;;;;;4.97;1.90;;;;;;;;;;5071348;28;20040;-78
2023/09/29 02:56:17;;;;;;;5.05;2.13;;;;;;;;;;5070831;28;20090;-79
2023/09/29 02:58:44;;;;;;;2.90;1.92;;;;;;;;;;5071675;28;20052;-77
2023/09/29 03:01:18;;;;;;;3.08;2.10;;;;;;;;;;5071189;28;20040;-78
2023/09/29 03:03:46;;;;;;;2.92;1.85;;;;;;;;;;5053435;28;20048;-78
2023/09/29 03:06:23;;;;;;;4.20;1.80;;;;;;;;;;5071589;28;20098;-79
2023/09/29 03:08:54;;;;;;;4.93;2.10;;;;;;;;;;5071127;28;20139;-79
2023/09/29 03:11:22;;;;;;;2.88;1.85;;;;;;;;;;5071311;28;20044;-78
2023/09/29 03:13:49;;;;;;;4.13;2.08;;;;;;;;;;5070920;28;20051;-78
2023/09/29 03:16:18;;;;;;;3.17;2.00;;;;;;;;;;5070869;28;20059;-78
2023/09/29 03:18:46;;;;;;;3.53;2.05;;;;;;;;;;5071298;28;20044;-78
2023/09/29 03:21:13;;;;;;;4.22;2.08;;;;;;;;;;5071015;28;20041;-78
2023/09/29 03:23:42;;;;;;;3.28;1.83;;;;;;;;;;5070716;28;20051;-78
2023/09/29 03:26:09;;;;;;;3.50;1.70;;;;;;;;;;5070836;28;20054;-79
2023/09/29 03:28:36;;;;;;;3.40;1.92;;;;;;;;;;5070706;28;20055;-79
2023/09/29 03:31:07;;;;;;;4.90;1.80;;;;;;;;;;5071207;28;20044;-79
2023/09/29 03:33:33;;;;;;;;;;;;;;;;;;5071240;28;20044;-79
2023/09/29 03:36:01;;;;;;;3.78;1.88;;;;;;;;;;5070985;28;19935;-79
2023/09/29 03:38:28;;;;;;;2.25;1.55;;;;;;;;;;5070110;28;20045;-79
2023/09/29 03:40:56;;;;;;;2.97;1.90;;;;;;;;;;5070782;28;20117;-77
2023/09/29 03:43:23;;;;;;;6.43;1.83;;;;;;;;;;5070483;28;20054;-80
2023/09/29 03:45:50;;;;;;;4.00;2.00;;;;;;;;;;5070732;28;20047;-78
2023/09/29 03:48:17;;;;;;;4.22;1.73;;;;;;;;;;5070095;28;20094;-79
2023/09/29 03:50:44;;;;;;;6.70;2.13;;;;;;;;;;5070972;28;20114;-78
2023/09/29 03:53:10;;;;;;;5.97;2.17;;;;;;;;;;5069719;28;20446;-79
2023/09/29 03:55:37;;;;;;;3.70;2.00;;;;;;;;;;5070255;28;20102;-79
2023/09/29 03:58:04;;;;;;;5.13;2.03;;;;;;;;;;5070299;28;20060;-79
2023/09/29 04:00:31;;;;;;;5.93;2.10;;;;;;;;;;5070120;28;20048;-78
2023/09/29 04:02:57;;;;;;;5.93;1.98;;;;;;;;;;5070007;28;20040;-79
2023/09/29 04:05:24;;;;;;;4.75;1.88;;;;;;;;;;5070496;28;20044;-78
2023/09/29 04:07:51;;;;;;;5.50;1.90;;;;;;;;;;5069788;28;20052;-79
2023/09/29 04:10:18;;;;;;;3.83;1.92;;;;;;;;;;5069892;28;20440;-79
2023/09/29 04:12:45;;;;;;;4.10;1.90;;;;;;;;;;5069832;28;20049;-78
2023/09/29 04:15:14;;;;;;;5.32;2.15;;;;;;;;;;5070031;28;20053;-79
2023/09/29 04:17:41;;;;;;;4.97;2.13;;;;;;;;;;5051818;28;20452;-78
2023/09/29 04:20:10;;;;;;;5.20;2.40;;;;;;;;;;5069986;28;20045;-79
2023/09/29 04:22:37;;;;;;;5.28;2.10;;;;;;;;;;5069859;28;20040;-79
2023/09/29 04:25:09;;;;;;;5.00;2.17;;;;;;;;;;5069314;28;20049;-78
2023/09/29 04:27:37;;;;;;;5.13;2.20;;;;;;;;;;5069334;28;20501;-78
2023/09/29 04:30:06;;;;;;;6.13;2.10;;;;;;;;;;5069934;28;20086;-78
2023/09/29 04:32:33;;;;;;;2.58;1.92;;;;;;;;;;5069841;28;20045;-77
2023/09/29 04:34:59;;;;;;;5.15;1.92;;;;;;;;;;5069809;28;20045;-78
2023/09/29 04:37:26;;;;;;;3.45;1.98;;;;;;;;;;5069522;28;20244;-79
2023/09/29 04:39:55;;;;;;;4.55;2.20;;;;;;;;;;5069181;28;20082;-79
2023/09/29 04:42:22;;;;;;;3.58;2.03;;;;;;;;;;5069413;28;20049;-78
2023/09/29 04:44:49;;;;;;;3.65;2.10;;;;;;;;;;5069262;28;20047;-79
2023/09/29 04:47:15;;;;;;;3.20;1.83;;;;;;;;;;5069354;28;20048;-80
2023/09/29 04:49:42;;;;;;;5.05;2.08;;;;;;;;;;5068732;28;20041;-79
2023/09/29 04:52:09;;;;;;;5.53;2.08;;;;;;;;;;5069344;28;20410;-78
2023/09/29 04:54:35;;;;;;;3.80;1.90;;;;;;;;;;5068964;28;20094;-80
2023/09/29 04:57:02;;;;;;;5.57;2.03;;;;;;;;;;5068786;28;20484;-79
2023/09/29 04:59:29;;;;;;;4.43;2.20;;;;;;;;;;5069079;28;20102;-79
2023/09/29 05:01:56;;;;;;;3.42;2.15;;;;;;;;;;5069505;28;20164;-79
2023/09/29 05:04:23;;;;;;;3.05;1.90;;;;;;;;;;5068764;28;20055;-79
2023/09/29 05:06:51;;;;;;;3.92;2.13;;;;;;;;;;5068912;28;20412;-79
2023/09/29 05:09:19;;;;;;;4.30;2.42;;;;;;;;;;5068616;28;20683;-77
2023/09/29 05:11:46;;;;;;;4.63;2.17;;;;;;;;;;5069194;28;20052;-78
2023/09/29 05:14:13;;;;;;;3.33;1.85;;;;;;;;;;5068824;28;20050;-79
2023/09/29 05:16:39;;;;;;;3.25;2.05;;;;;;;;;;5068834;28;20048;-79
2023/09/29 05:19:06;;;;;;;8.38;2.75;;;;;;;;;;5068332;28;20083;-79
2023/09/29 05:21:34;;;;;;;3.80;2.03;;;;;;;;;;5068950;28;20439;-79
2023/09/29 05:24:01;;;;;;;4.78;2.05;;;;;;;;;;5068369;28;20511;-79
2023/09/29 05:26:28;;;;;;;4.05;2.25;;;;;;;;;;5068761;28;20047;-79
2023/09/29 05:28:55;;;;;;;5.40;2.50;;;;;;;;;;5068613;28;20044;-79
2023/09/29 05:31:22;;;;;;;5.38;1.95;;;;;;;;;;5068750;28;20044;-79
2023/09/29 05:33:49;;;;;;;4.13;1.98;;;;;;;;;;5068513;28;20044;-79
2023/09/29 05:36:16;;;;;;;3.72;2.03;;;;;;;;;;5068517;28;20048;-79
2023/09/29 05:38:43;;;;;;;5.22;2.13;;;;;;;;;;5068480;28;20047;-79
2023/09/29 05:41:10;;;;;;;4.32;2.13;;;;;;;;;;5050766;28;20594;-78
2023/09/29 05:43:37;;;;;;;5.15;2.15;;;;;;;;;;5068200;28;20404;-78
2023/09/29 05:46:03;;;;;;;6.03;2.13;;;;;;;;;;5068508;28;20052;-79
2023/09/29 05:48:30;;;;;;;5.65;2.17;;;;;;;;;;5068198;28;20131;-78
2023/09/29 05:50:58;;;;;;;4.45;2.13;;;;;;;;;;5050949;28;20048;-78
2023/09/29 05:53:25;;;;;;;4.03;2.28;;;;;;;;;;5068210;28;20688;-79
2023/09/29 05:55:52;;;;;;;6.97;2.40;;;;;;;;;;5068284;28;20044;-79
2023/09/29 05:58:20;;;;;;;5.03;1.98;;;;;;;;;;5068240;28;20488;-78
2023/09/29 06:00:46;;;;;;;5.38;2.13;;;;;;;;;;5071121;28;20067;-77
2023/09/29 06:03:13;;;;;;;7.15;2.20;;;;;;;;;;5072656;28;20508;-78
2023/09/29 06:05:41;;;;;;;5.03;2.20;;;;;;;;;;5072427;28;20055;-77
2023/09/29 06:08:09;;;;;;;8.20;2.30;;;;;;;;;;5071518;28;20373;-78
2023/09/29 06:10:36;;;;;;;4.95;2.00;;;;;;;;;;5072055;28;20044;-78
2023/09/29 06:13:02;;;;;;;5.88;2.30;;;;;;;;;;5071957;28;20051;-75
2023/09/29 06:15:30;;;;;;;6.13;2.22;;;;;;;;;;5072233;28;20053;-77
2023/09/29 06:17:57;;;;;;;3.58;1.85;;;;;;;;;;5072229;28;20488;-78
2023/09/29 06:20:23;;;;;;;6.10;2.08;;;;;;;;;;5054407;28;20051;-79
2023/09/29 06:22:50;;;;;;;3.50;1.90;;;;;;;;;;5071909;28;20413;-78
2023/09/29 06:25:17;;;;;;;3.67;1.95;;;;;;;;;;5072053;28;20048;-77
2023/09/29 06:27:43;;;;;;;5.43;2.38;;;;;;;;;;5072040;28;20601;-78
2023/09/29 06:30:10;;;;;;;5.63;2.13;;;;;;;;;;5072215;28;20124;-79
2023/09/29 06:32:37;;;;;;;4.03;2.38;;;;;;;;;;5072061;28;20436;-78
2023/09/29 06:35:04;;;;;;;6.50;2.20;;;;;;;;;;5071661;28;20044;-77
2023/09/29 06:37:31;;;;;;;7.90;2.28;;;;;;;;;;5072023;28;20055;-77
2023/09/29 06:39:58;;;;;;;7.28;2.65;;;;;;;;;;5071333;28;20053;-79
2023/09/29 06:42:24;;;;;;;5.50;2.40;;;;;;;;;;5071408;28;20416;-77
2023/09/29 06:44:51;;;;;;;7.90;2.35;;;;;;;;;;5071593;28;20040;-78
2023/09/29 06:47:18;;;;;;;4.18;2.25;;;;;;;;;;5071637;28;20044;-78
2023/09/29 06:49:45;;;;;;;4.95;2.38;;;;;;;;;;5071556;28;20052;-79
2023/09/29 06:52:12;;;;;;;5.95;2.53;;;;;;;;;;5071790;28;20048;-79
2023/09/29 06:54:39;;;;;;;6.22;2.30;;;;;;;;;;5070896;28;20045;-78
2023/09/29 06:57:05;;;;;;;7.07;2.20;;;;;;;;;;5071325;28;20057;-78
2023/09/29 06:59:32;;;;;;;4.35;2.47;;;;;;;;;;5071237;28;20726;-78
2023/09/29 07:01:59;;;;;;;4.95;2.45;;;;;;;;;;5071732;28;20052;-78
2023/09/29 07:04:26;;;;;;;7.28;2.28;;;;;;;;;;5070895;28;20497;-78
2023/09/29 07:06:53;;;;;;;4.93;2.15;;;;;;;;;;5071551;28;20047;-78
2023/09/29 07:09:19;;;;;;;8.18;2.65;;;;;;;;;;5070881;28;20053;-78
2023/09/29 07:11:46;;;;;;;4.75;2.25;;;;;;;;;;5070671;28;20052;-78
2023/09/29 07:14:13;;;;;;;4.13;2.03;;;;;;;;;;5071178;28;20067;-78
2023/09/29 07:16:42;;;;;;;4.75;2.30;;;;;;;;;;5070909;28;20660;-77
2023/09/29 07:19:12;;;;;;;3.92;2.35;;;;;;;;;;5071137;28;20129;-78
2023/09/29 07:21:40;;;;;;;4.90;2.15;;;;;;;;;;5070939;28;20045;-78
2023/09/29 07:24:07;;;;;;;7.07;2.65;;;;;;;;;;5070100;28;20516;-78
2023/09/29 07:26:35;;;;;;;4.47;2.53;;;;;;;;;;5070933;28;20051;-78
2023/09/29 07:29:03;;;;;;;4.43;2.28;;;;;;;;;;5052878;28;20084;-78
2023/09/29 07:31:37;;;;;;;6.75;2.67;;;;;;;;;;5070403;28;20045;-78
2023/09/29 07:34:04;;;;;;;4.25;2.47;;;;;;;;;;5070699;28;20051;-77
2023/09/29 07:36:33;;;;;;;5.90;2.40;;;;;;;;;;5070316;28;20536;-75
2023/09/29 07:39:00;;;;;;;6.70;2.50;;;;;;;;;;5070436;28;20095;-77
2023/09/29 07:41:26;;;;;;;5.15;2.53;;;;;;;;;;5070491;28;20052;-80
2023/09/29 07:43:53;;;;;;;6.88;2.45;;;;;;;;;;5070510;28;20484;-78
2023/09/29 07:46:20;;;;;;;3.72;2.20;;;;;;;;;;5070575;28;20047;-77
2023/09/29 07:48:47;;;;;;;6.35;2.40;;;;;;;;;;5070036;28;20478;-77
2023/09/29 07:51:15;;;;;;;4.40;2.10;;;;;;;;;;5070357;28;20044;-77
2023/09/29 07:53:43;;;;;;;3.35;2.10;;;;;;;;;;5070006;28;20040;-79
2023/09/29 07:56:10;;;;;;;5.75;2.40;;;;;;;;;;5070376;28;20037;-78
2023/09/29 07:58:38;;;;;;;6.35;2.20;;;;;;;;;;5070397;28;20048;-79
2023/09/29 08:01:05;;;;;;;5.28;2.00;;;;;;;;;;5070030;28;20048;-79
2023/09/29 08:03:32;;;;;;;5.53;2.20;;;;;;;;;;5070361;28;20044;-79
2023/09/29 08:05:59;;;;;;;4.60;2.50;;;;;;;;;;5070238;28;20049;-78
2023/09/29 08:08:26;;;;;;;7.20;2.25;;;;;;;;;;5069471;28;20048;-78
2023/09/29 08:10:52;;;;;;;6.68;2.35;;;;;;;;;;5069736;28;20044;-78
2023/09/29 08:13:19;;;;;;;6.38;2.15;;;;;;;;;;5070265;28;20048;-78
2023/09/29 08:15:46;;;;;;;4.15;2.30;;;;;;;;;;5069542;28;20041;-79
2023/09/29 08:18:13;;;;;;;7.55;2.08;;;;;;;;;;5069715;28;20484;-78
2023/09/29 08:20:40;;;;;;;7.60;2.30;;;;;;;;;;5069770;28;20045;-77
2023/09/29 08:23:08;;;;;;;4.03;2.20;;;;;;;;;;5068739;28;20051;-79
2023/09/29 08:25:35;;;;;;;6.45;2.53;;;;;;;;;;5069699;28;20051;-79
2023/09/29 08:28:02;;;;;;;6.22;2.00;;;;;;;;;;5052339;28;20045;-79
2023/09/29 08:30:29;;;;;;;4.78;2.13;;;;;;;;;;5069312;28;20133;-79
2023/09/29 08:32:56;;;;;;;6.93;2.00;;;;;;;;;;5052023;28;20076;-79
2023/09/29 08:35:42;;;;;;;7.43;2.20;;;;;;;;;;5069371;28;20049;-78
2023/09/29 08:38:09;;;;;;;6.72;2.08;;;;;;;;;;5069163;28;20282;-77
2023/09/29 08:40:40;;;;;;;7.00;2.17;;;;;;;;;;5069086;28;20053;-73
2023/09/29 08:43:10;;;;;;;5.53;2.20;;;;;;;;;;5069352;28;20056;-77
2023/09/29 08:45:42;;;;;;;5.40;2.50;;;;;;;;;;5069132;28;20044;-76
2023/09/29 08:48:11;;;;;;;5.50;2.25;;;;;;;;;;5069379;28;20048;-75
2023/09/29 08:50:40;;;;;;;5.03;2.30;;;;;;;;;;5068783;28;20151;-77
2023/09/29 08:53:10;;;;;;;9.68;2.47;;;;;;;;;;5068966;28;20076;-75
2023/09/29 08:55:38;;;;;;;4.45;2.25;;;;;;;;;;5068809;28;20068;-78
2023/09/29 08:58:07;;;;;;;5.53;2.03;;;;;;;;;;5069301;28;20458;-79
2023/09/29 09:00:35;;;;;;;5.43;2.20;;;;;;;;;;5068798;28;20063;-77
2023/09/29 09:03:02;;;;;;;7.25;2.20;;;;;;;;;;5069441;28;20124;-71
2023/09/29 09:05:29;;;;;;;5.93;2.40;;;;;;;;;;5069151;28;20045;-78
2023/09/29 09:07:59;;;;;;;9.40;2.45;;;;;;;;;;5068880;28;20048;-76
2023/09/29 09:10:38;;;;;;;10.90;2.05;;;;;;;;;;5068439;28;20117;-77
2023/09/29 09:13:05;;;;;;;5.03;2.20;;;;;;;;;;5068961;28;20041;-78
2023/09/29 09:15:32;;;;;;;6.65;2.35;;;;;;;;;;5069049;28;20046;-78
2023/09/29 09:17:59;;;;;;;7.85;2.08;;;;;;;;;;5068727;28;20138;-76
2023/09/29 09:20:26;;;;;;;5.55;2.10;;;;;;;;;;5068416;28;20091;-78
2023/09/29 09:22:57;;;;;;;4.68;2.00;;;;;;;;;;5068124;28;20059;-79
2023/09/29 09:25:35;;;;;;;6.82;2.10;;;;;;;;;;5068998;28;20411;-78
2023/09/29 09:28:03;;;;;;;5.80;2.05;;;;;;;;;;5068599;28;20090;-69
2023/09/29 09:30:35;;;;;;;5.07;1.80;;;;;;;;;;5068807;28;20056;-69
2023/09/29 09:33:04;;;;;;;6.78;1.98;;;;;;;;;;5068571;28;20447;-69
2023/09/29 09:35:36;;;;;;;6.87;1.93;;;;;;;;;;5068474;28;20421;-79
2023/09/29 09:38:04;;;;;;;8.13;2.10;;;;;;;;;;5068473;28;20283;-78
2023/09/29 09:40:32;;;;;;;10.43;1.85;;;;;;;;;;5050360;28;20439;-78
2023/09/29 09:43:02;;;;;;;5.32;1.90;;;;;;;;;;5046750;28;20132;-78
2023/09/29 09:45:37;;;;;;;4.72;1.90;;;;;;;;;;5048720;28;20048;-78
2023/09/29 09:48:08;;;;;;;4.57;1.90;;;;;;;;;;5048337;28;20057;-78
2023/09/29 09:50:41;;;;;;;8.98;1.92;;;;;;;;;;5047148;28;20079;-79
2023/09/29 09:53:11;;;;;;;3.20;1.70;;;;;;;;;;5046629;28;20084;-79
2023/09/29 09:55:50;;;;;;;7.05;1.90;;;;;;;;;;5048366;28;20552;-78
2023/09/29 09:58:21;;;;;;;3.70;2.05;;;;;;;;;;5048325;28;20049;-79
2023/09/29 10:00:54;;;;;;;6.93;1.90;;;;;;;;;;5046550;28;20045;-78
2023/09/29 10:03:23;;;;;;;4.35;1.88;;;;;;;;;;5048459;28;20120;-77
2023/09/29 10:05:52;;;;;;;7.30;1.90;;;;;;;;;;5048622;28;20049;-78
2023/09/29 10:08:29;;;;;;;4.32;1.90;;;;;;;;;;5047007;28;20045;-79
2023/09/29 10:11:10;;;;;;;4.30;1.92;;;;;;;;;;5048296;28;20060;-78
2023/09/29 10:13:42;;;;;;;5.20;1.55;;;;;;;;;;5048644;28;20091;-78
2023/09/29 10:16:23;;;;;;;3.13;1.40;;;;;;;;;;5048143;28;20080;-79
2023/09/29 10:19:05;;;;;;;2.33;1.58;;;;;;;;;;5048173;28;20115;-76
2023/09/29 10:21:42;;;;;;;2.95;1.65;;;;;;;;;;5047908;28;20069;-79
2023/09/29 10:24:13;;;;;;;4.22;1.60;;;;;;;;;;5047989;28;20041;-80
2023/09/29 10:26:47;;;;;;;4.50;1.60;;;;;;;;;;5048501;28;20056;-76
2023/09/29 10:29:20;;;;;;;5.78;1.30;;;;;;;;;;5047976;28;20045;-78
2023/09/29 10:31:49;;;;;;;4.22;1.65;;;;;;;;;;5047957;28;20124;-78
2023/09/29 10:34:21;;;;;;;3.05;1.77;;;;;;;;;;5048076;28;20103;-79
2023/09/29 10:36:55;;;;;;;7.28;1.60;;;;;;;;;;5047925;28;20094;-79
2023/09/29 10:39:26;;;;;;;4.95;1.63;;;;;;;;;;5047661;28;20055;-79
2023/09/29 10:42:05;;;;;;;3.40;1.50;;;;;;;;;;5047484;28;20416;-78
2023/09/29 10:44:57;;;;;;;6.30;1.60;;;;;;;;;;5066569;28;20048;-79
2023/09/29 10:47:32;;;;;;;3.63;1.52;;;;;;;;;;5069453;28;20051;-76
2023/09/29 10:50:10;;;;;;;2.75;1.58;;;;;;;;;;5071382;28;20052;-79
2023/09/29 10:52:37;;;;;;;4.43;1.60;;;;;;;;;;5071223;28;20471;-78
2023/09/29 10:55:04;;;;;;;2.47;1.50;;;;;;;;;;5071033;28;20509;-80
2023/09/29 10:57:33;;;;;;;4.93;1.50;;;;;;;;;;5071398;28;20044;-79
2023/09/29 11:00:00;;;;;;;4.40;1.55;;;;;;;;;;5071635;28;20127;-79
2023/09/29 11:02:32;;;;;;;3.35;1.40;;;;;;;;;;5071321;28;20048;-80
2023/09/29 11:05:09;;;;;;;3.72;1.48;;;;;;;;;;5071759;28;20091;-80
2023/09/29 11:07:50;;;;;;;3.22;1.52;;;;;;;;;;5071358;28;20120;-77
2023/09/29 11:10:18;;;;;;;3.95;1.27;;;;;;;;;;5071184;28;20412;-79
2023/09/29 11:12:46;;;;;;;4.47;1.30;;;;;;;;;;5071092;28;20139;-79
2023/09/29 11:15:15;;;;;;;2.70;1.30;;;;;;;;;;5074256;28;20124;-79
2023/09/29 11:17:44;;;;;;;2.25;1.20;;;;;;;;;;5091145;28;20535;-74
2023/09/29 11:20:37;;;;;;;2.53;1.37;;;;;;;;;;5091566;28;20071;-76
2023/09/29 11:23:11;;;;;;;3.63;1.42;;;;;;;;;;5090702;28;20101;-79
2023/09/29 11:25:54;;;;;;;2.45;1.30;;;;;;;;;;5091226;28;20040;-77
2023/09/29 11:28:21;;;;;;;2.80;1.40;;;;;;;;;;5090786;28;20508;-77
2023/09/29 11:30:48;;;;;;;3.38;1.40;;;;;;;;;;5090975;28;20044;-79
2023/09/29 11:33:15;;;;;;;6.80;1.40;;;;;;;;;;5091105;28;20078;-79
2023/09/29 11:35:45;;;;;;;5.10;1.40;;;;;;;;;;5091091;28;20074;-77
2023/09/29 11:38:31;;;;;;;4.68;1.65;;;;;;;;;;5090641;28;20097;-80
2023/09/29 11:40:57;;;;;;;3.53;1.20;;;;;;;;;;5091566;28;20050;-79
2023/09/29 11:43:25;;;;;;;2.63;1.20;;;;;;;;;;5090859;28;20059;-80
2023/09/29 11:45:52;;;;;;;1.88;1.10;;;;;;;;;;5090972;28;20525;-72
2023/09/29 11:48:19;;;;;;;2.50;1.30;;;;;;;;;;5090422;28;20492;-76
2023/09/29 11:50:46;;;;;;;2.55;1.23;;;;;;;;;;5090531;28;20539;-73
2023/09/29 11:53:13;;;;;;;2.10;1.25;;;;;;;;;;5090255;28;20688;-76
2023/09/29 11:55:39;;;;;;;2.35;1.20;;;;;;;;;;5091134;28;20056;-76
2023/09/29 11:58:08;;;;;;;3.65;1.00;;;;;;;;;;5090098;28;20048;-79
2023/09/29 12:00:35;;;;;;;2.20;1.00;;;;;;;;;;5090565;28;20059;-77
2023/09/29 12:03:05;;;;;;;1.77;1.10;;;;;;;;;;5090162;28;20056;-78
2023/09/29 12:05:33;;;;;;;1.98;1.20;;;;;;;;;;5090728;28;20407;-79
2023/09/29 12:08:04;;;;;;;1.83;1.10;;;;;;;;;;5072308;28;20127;-79
2023/09/29 12:10:31;;;;;;;2.80;1.25;;;;;;;;;;5090142;28;20048;-79
2023/09/29 12:12:58;;;;;;;1.65;1.00;;;;;;;;;;5090166;28;20131;-79
2023/09/29 12:15:25;;;;;;;1.63;0.93;;;;;;;;;;5090558;28;20055;-77
2023/09/29 12:17:53;;;;;;;1.80;1.00;;;;;;;;;;5090333;28;20066;-79
2023/09/29 12:20:21;;;;;;;2.30;1.13;;;;;;;;;;5090436;28;20044;-78
2023/09/29 12:22:50;;;;;;;1.85;0.90;;;;;;;;;;5089686;28;20052;-78
2023/09/29 12:25:17;;;;;;;1.85;1.10;;;;;;;;;;5090065;28;20067;-79
2023/09/29 12:27:45;;;;;;;2.90;1.02;;;;;;;;;;5089699;28;20044;-79
2023/09/29 12:30:12;;;;;;;1.98;0.93;;;;;;;;;;5089736;28;20052;-79
2023/09/29 12:32:40;;;;;;;2.08;1.00;;;;;;;;;;5089772;28;20090;-80
2023/09/29 12:35:14;;;;;;;2.00;0.98;;;;;;;;;;5089991;28;20105;-81
2023/09/29 12:37:43;;;;;;;3.92;0.90;;;;;;;;;;5090388;28;20044;-82
2023/09/29 12:40:11;;;;;;;1.20;0.90;;;;;;;;;;5090694;28;20138;-78
2023/09/29 12:42:46;;;;;;;2.28;0.98;;;;;;;;;;5067435;28;20057;-77
2023/09/29 12:45:14;;;;;;;1.30;0.90;;;;;;;;;;5069414;28;20166;-79
2023/09/29 12:47:41;;;;;;;4.75;1.08;;;;;;;;;;5069463;28;20044;-77
2023/09/29 12:50:08;;;;;;;3.45;1.13;;;;;;;;;;5069121;28;20055;-77
2023/09/29 12:52:35;;;;;;;1.55;1.00;;;;;;;;;;5069045;28;20535;-77
2023/09/29 12:55:02;;;;;;;1.40;0.95;;;;;;;;;;5068561;28;20048;-75
2023/09/29 12:57:29;;;;;;;1.38;1.00;;;;;;;;;;5069282;28;20054;-83
2023/09/29 12:59:57;;;;;;;4.00;1.15;;;;;;;;;;5069007;28;20044;-83
2023/09/29 13:02:25;;;;;;;1.60;1.00;;;;;;;;;;5067999;28;20106;-82
2023/09/29 13:04:51;;;;;;;1.52;1.10;;;;;;;;;;5077337;28;20056;-77
2023/09/29 13:07:19;;;;;;;2.58;1.23;;;;;;;;;;5085533;28;20469;-83
2023/09/29 13:09:46;;;;;;;2.08;1.02;;;;;;;;;;5067791;28;20047;-85
2023/09/29 13:12:14;;;;;;;2.42;1.15;;;;;;;;;;5081206;28;20408;-80
2023/09/29 13:14:55;;;;;;;2.28;1.20;;;;;;;;;;5089361;28;20192;-88
2023/09/29 13:17:22;;;;;;;2.58;1.13;;;;;;;;;;5091960;28;20048;-82
2023/09/29 13:19:49;;;;;;;3.13;1.00;;;;;;;;;;5084738;28;20113;-83
2023/09/29 13:22:16;;;;;;;1.50;1.00;;;;;;;;;;5072340;28;20075;-80
2023/09/29 13:24:43;;;;;;;1.42;0.95;;;;;;;;;;5083267;28;20103;-84
2023/09/29 13:27:10;;;;;;;1.50;0.90;;;;;;;;;;5081050;28;20047;-83
2023/09/29 13:29:38;;;;;;;2.05;1.00;;;;;;;;;;5095282;28;20123;-80
2023/09/29 13:32:06;;;;;;;1.23;1.00;;;;;;;;;;5093215;28;20044;-82
2023/09/29 13:34:32;;;;;;;3.58;1.00;;;;;;;;;;5071639;28;20440;-77
2023/09/29 13:36:59;;;;;;;1.60;1.00;;;;;;;;;;5073107;28;20052;-80
2023/09/29 13:39:27;;;;;;;3.22;1.05;;;;;;;;;;5069761;28;20131;-82
2023/09/29 13:41:54;;;;;;;1.90;1.00;;;;;;;;;;5083401;28;20084;-82
2023/09/29 13:44:21;;;;;;;1.40;0.88;;;;;;;;;;5091472;28;20117;-81
2023/09/29 13:46:48;;;;;;;1.92;1.02;;;;;;;;;;5091543;28;20048;-83
2023/09/29 13:49:32;;;;;;;1.50;1.00;;;;;;;;;;5092010;28;20492;-81
2023/09/29 13:51:58;;;;;;;2.88;1.10;;;;;;;;;;5093921;28;20056;-79
2023/09/29 13:54:25;;;;;;;1.50;1.00;;;;;;;;;;5074682;28;20051;-80
2023/09/29 13:56:52;;;;;;;1.92;0.90;;;;;;;;;;5074413;28;20045;-80
2023/09/29 13:59:18;;;;;;;1.98;1.00;;;;;;;;;;5090114;28;20086;-82
2023/09/29 14:01:45;;;;;;;1.60;0.90;;;;;;;;;;5094910;28;20065;-81
2023/09/29 14:04:12;;;;;;;1.95;1.40;;;;;;;;;;5098232;28;20052;-82
2023/09/29 14:06:38;;;;;;;1.77;1.10;;;;;;;;;;5100095;28;20044;-82
2023/09/29 14:09:05;;;;;;;2.47;1.20;;;;;;;;;;5097449;28;20342;-81
2023/09/29 14:11:43;;;;;;;2.45;1.30;;;;;;;;;;5097456;28;20119;-81
2023/09/29 14:14:10;;;;;;;2.13;1.17;;;;;;;;;;5097603;28;20082;-82
2023/09/29 14:16:36;;;;;;;1.60;0.95;;;;;;;;;;5096949;28;20079;-83
2023/09/29 14:19:03;;;;;;;2.42;1.08;;;;;;;;;;5088436;28;20087;-83
2023/09/29 14:21:30;;;;;;;2.35;0.90;;;;;;;;;;5079999;28;20060;-84
2023/09/29 14:23:57;;;;;;;2.28;1.05;;;;;;;;;;5081761;28;20045;-82
2023/09/29 14:26:24;;;;;;;1.75;1.10;;;;;;;;;;5085550;28;20073;-82
2023/09/29 14:28:50;;;;;;;1.70;1.00;;;;;;;;;;5099292;28;20233;-80
2023/09/29 14:31:17;;;;;;;2.17;1.10;;;;;;;;;;5100046;28;20047;-80
2023/09/29 14:33:44;;;;;;;1.85;1.00;;;;;;;;;;5079109;28;20309;-82
2023/09/29 14:36:10;;;;;;;1.52;1.00;;;;;;;;;;5086285;28;20048;-86
2023/09/29 14:38:37;;;;;;;2.70;1.20;;;;;;;;;;5080112;28;20331;-84
2023/09/29 14:41:07;;;;;;;2.20;1.20;;;;;;;;;;5080355;28;20096;-83
2023/09/29 14:43:36;;;;;;;2.40;1.10;;;;;;;;;;5082937;28;20341;-84
2023/09/29 14:46:13;;;;;;;2.88;1.20;;;;;;;;;;5083240;28;20056;-83
2023/09/29 14:48:40;;;;;;;2.03;1.10;;;;;;;;;;5089030;28;20104;-76
2023/09/29 14:51:08;;;;;;;1.83;1.20;;;;;;;;;;5102453;28;20071;-80
2023/09/29 14:53:36;;;;;;;2.10;0.98;;;;;;;;;;5103030;28;20044;-80